Time;durP1;ratioP1;P1;durP2;ratioP2;P2;SDS_P1;SDS_P2;PMS_P1;PMS_P2;Temp;Humidity;BMP_temperature;BMP_pressure;BME280_temperature;BME280_humidity;BME280_pressure;Samples;Min_cycle;Max_cycle;Signal;HPM_P1;HPM_P2
2021/12/21 00:00:19;;;;;;;21.10;10.43;;;-1.60;99.90;;;;;;5051370;28;20215;-67
2021/12/21 00:02:50;;;;;;;22.03;10.50;;;-1.60;99.90;;;;;;5054620;28;20568;-67
2021/12/21 00:05:20;;;;;;;25.33;11.50;;;-1.50;99.90;;;;;;5051008;28;20199;-67
2021/12/21 00:07:49;;;;;;;25.47;11.07;;;-1.60;99.90;;;;;;5053745;28;20201;-67
2021/12/21 00:10:17;;;;;;;24.10;11.53;;;-1.50;99.90;;;;;;5055959;28;20195;-67
2021/12/21 00:13:00;;;;;;;24.30;11.73;;;-1.60;99.90;;;;;;5054298;28;20289;-68
2021/12/21 00:15:39;;;;;;;22.43;10.70;;;-1.60;99.90;;;;;;5055742;28;20291;-67
2021/12/21 00:18:23;;;;;;;24.30;10.87;;;-1.60;99.90;;;;;;5063889;28;20216;-67
2021/12/21 00:20:59;;;;;;;24.97;11.30;;;-1.70;99.90;;;;;;5038891;28;20474;-72
2021/12/21 00:23:34;;;;;;;23.87;10.77;;;-1.60;99.90;;;;;;5054052;28;20210;-71
2021/12/21 00:26:04;;;;;;;22.33;11.20;;;-1.70;99.90;;;;;;5053017;28;20198;-66
2021/12/21 00:28:35;;;;;;;23.77;11.00;;;-1.70;99.90;;;;;;5052465;28;20462;-66
2021/12/21 00:31:02;;;;;;;23.37;11.10;;;-1.70;99.90;;;;;;5053588;28;20222;-72
2021/12/21 00:33:31;;;;;;;22.33;11.47;;;-1.60;99.90;;;;;;5057062;28;20202;-71
2021/12/21 00:35:58;;;;;;;21.47;10.43;;;-1.70;99.90;;;;;;5054266;28;20203;-73
2021/12/21 00:38:25;;;;;;;21.37;10.53;;;-1.70;99.90;;;;;;5033626;28;20203;-73
2021/12/21 00:40:52;;;;;;;21.77;10.30;;;-1.70;99.90;;;;;;5054117;28;20219;-72
2021/12/21 00:43:19;;;;;;;26.37;11.20;;;-1.80;99.90;;;;;;5058397;28;20234;-66
2021/12/21 00:45:46;;;;;;;24.80;11.63;;;-1.70;99.90;;;;;;5055011;28;20198;-67
2021/12/21 00:48:15;;;;;;;22.37;10.27;;;-1.80;99.90;;;;;;5053873;28;20256;-66
2021/12/21 00:50:44;;;;;;;21.70;9.90;;;-1.80;99.90;;;;;;5053546;28;20257;-66
2021/12/21 00:53:12;;;;;;;20.13;10.83;;;-1.80;99.90;;;;;;5042107;28;20207;-66
2021/12/21 00:55:39;;;;;;;23.47;10.23;;;-1.90;99.90;;;;;;5052951;28;20200;-66
2021/12/21 00:58:06;;;;;;;24.27;11.87;;;-1.80;99.90;;;;;;5051304;28;20199;-66
2021/12/21 01:00:33;;;;;;;25.90;11.30;;;-1.80;99.90;;;;;;5051332;28;20219;-66
2021/12/21 01:03:06;;;;;;;20.00;10.50;;;-1.90;99.90;;;;;;5051874;28;20707;-66
2021/12/21 01:05:41;;;;;;;22.93;10.77;;;-1.90;99.90;;;;;;5052896;28;20274;-66
2021/12/21 01:08:13;;;;;;;22.70;10.27;;;-1.90;99.90;;;;;;5063559;28;20217;-66
2021/12/21 01:13:33;;;;;;;22.63;10.93;;;-2.00;99.90;;;;;;5051860;28;20195;-66
2021/12/21 01:16:12;;;;;;;22.87;10.43;;;-2.00;99.90;;;;;;5053708;28;20638;-66
2021/12/21 01:18:53;;;;;;;21.63;10.40;;;-2.00;99.90;;;;;;5062190;28;20232;-67
2021/12/21 01:21:24;;;;;;;22.20;10.80;;;-2.00;99.90;;;;;;5053404;28;20738;-66
2021/12/21 01:24:16;;;;;;;22.40;10.33;;;-2.10;99.90;;;;;;5053171;28;20709;-66
2021/12/21 01:26:56;;;;;;;23.00;10.63;;;-2.10;99.90;;;;;;5032498;28;20270;-67
2021/12/21 01:29:30;;;;;;;20.53;11.20;;;-2.10;99.90;;;;;;5052758;28;20205;-66
2021/12/21 01:32:04;;;;;;;20.53;10.83;;;-2.10;99.90;;;;;;5052511;28;20191;-66
2021/12/21 01:34:42;;;;;;;23.80;12.30;;;-2.10;99.90;;;;;;5061607;28;20213;-67
2021/12/21 01:37:17;;;;;;;21.57;10.20;;;-2.10;99.90;;;;;;5049647;28;20573;-66
2021/12/21 01:50:40;;;;;;;21.90;10.50;;;-2.10;99.90;;;;;;5046295;28;20211;-66
2021/12/21 01:53:07;;;;;;;23.47;11.00;;;-2.20;99.90;;;;;;5051990;28;20215;-67
2021/12/21 01:55:35;;;;;;;24.27;11.70;;;-2.20;99.90;;;;;;5053198;28;20252;-67
2021/12/21 01:58:02;;;;;;;24.30;10.70;;;-2.20;99.90;;;;;;5052282;28;20239;-67
2021/12/21 02:00:29;;;;;;;21.27;10.33;;;-2.20;99.90;;;;;;5052583;28;20206;-67
2021/12/21 02:02:56;;;;;;;23.37;11.20;;;-2.20;99.90;;;;;;5051708;28;20290;-67
2021/12/21 02:05:23;;;;;;;23.73;11.17;;;-2.20;99.90;;;;;;5051883;28;20199;-67
2021/12/21 02:07:50;;;;;;;24.13;10.40;;;-2.20;99.90;;;;;;5051509;28;20202;-67
2021/12/21 02:10:17;;;;;;;20.63;10.83;;;-2.30;99.90;;;;;;5052093;28;20260;-67
2021/12/21 02:12:46;;;;;;;20.50;10.23;;;-2.30;99.90;;;;;;5050673;28;20657;-67
2021/12/21 02:15:13;;;;;;;23.40;10.77;;;-2.30;99.90;;;;;;5059050;28;20206;-67
2021/12/21 02:18:07;;;;;;;22.53;10.90;;;-2.30;99.90;;;;;;5068736;28;20492;-67
2021/12/21 02:20:43;;;;;;;22.77;11.03;;;-2.30;99.90;;;;;;5050742;28;20294;-67
2021/12/21 02:23:14;;;;;;;20.30;9.67;;;-2.30;99.90;;;;;;5035641;28;20207;-67
2021/12/21 02:26:07;;;;;;;22.87;10.47;;;-2.30;99.90;;;;;;5053820;28;20245;-67
2021/12/21 02:28:47;;;;;;;22.07;10.30;;;-2.40;99.90;;;;;;5050725;28;20302;-67
2021/12/21 02:31:16;;;;;;;20.80;10.07;;;-2.40;99.90;;;;;;5052604;28;20289;-67
2021/12/21 02:33:47;;;;;;;22.50;11.17;;;-2.40;99.90;;;;;;5056208;28;20214;-67
2021/12/21 02:36:16;;;;;;;22.83;10.10;;;-2.40;99.90;;;;;;5052295;28;20206;-67
2021/12/21 02:38:43;;;;;;;23.60;10.67;;;-2.50;99.90;;;;;;5051989;28;20202;-67
2021/12/21 02:41:10;;;;;;;22.33;10.77;;;-2.50;99.90;;;;;;5050819;28;20291;-67
2021/12/21 02:43:38;;;;;;;21.10;11.03;;;-2.50;99.90;;;;;;5050807;28;20253;-67
2021/12/21 02:46:07;;;;;;;21.73;10.87;;;-2.40;99.90;;;;;;5051552;28;20642;-67
2021/12/21 02:48:34;;;;;;;21.60;10.73;;;-2.40;99.90;;;;;;5060436;28;20199;-67
2021/12/21 02:51:01;;;;;;;23.47;10.47;;;-2.40;99.90;;;;;;5052137;28;20203;-67
2021/12/21 02:53:30;;;;;;;23.50;11.20;;;-2.50;99.90;;;;;;5050575;28;20199;-67
2021/12/21 02:55:57;;;;;;;20.63;11.57;;;-2.50;99.90;;;;;;5051319;28;20195;-67
2021/12/21 02:58:24;;;;;;;22.80;10.70;;;-2.50;99.90;;;;;;5052002;28;20207;-67
2021/12/21 03:00:53;;;;;;;25.47;11.80;;;-2.60;99.90;;;;;;5051593;28;20249;-67
2021/12/21 03:03:20;;;;;;;22.47;11.33;;;-2.50;99.90;;;;;;5053422;28;20207;-67
2021/12/21 03:05:51;;;;;;;23.33;10.60;;;-2.60;99.90;;;;;;5050762;28;20199;-67
2021/12/21 03:08:21;;;;;;;22.77;11.00;;;-2.60;99.90;;;;;;5056309;28;20691;-67
2021/12/21 03:11:04;;;;;;;23.23;10.70;;;-2.60;99.90;;;;;;5050155;28;20195;-67
2021/12/21 03:16:17;;;;;;;23.07;10.93;;;-2.60;99.90;;;;;;5052159;28;20561;-67
2021/12/21 03:18:44;;;;;;;23.63;10.73;;;-2.60;99.90;;;;;;5051206;28;20198;-67
2021/12/21 03:21:11;;;;;;;20.97;9.83;;;-2.60;99.90;;;;;;5049599;28;20681;-67
2021/12/21 03:23:40;;;;;;;28.77;11.87;;;-2.60;99.90;;;;;;5049989;28;20249;-67
2021/12/21 03:26:09;;;;;;;24.30;11.70;;;-2.60;99.90;;;;;;5051633;28;20242;-67
2021/12/21 03:28:36;;;;;;;19.87;10.40;;;-2.60;99.90;;;;;;5049990;28;20215;-67
2021/12/21 03:31:03;;;;;;;24.40;10.53;;;-2.60;99.90;;;;;;5051104;28;20199;-67
2021/12/21 03:33:30;;;;;;;22.10;10.63;;;-2.70;99.90;;;;;;5047687;28;20217;-67
2021/12/21 03:36:00;;;;;;;21.87;10.90;;;-2.70;99.90;;;;;;5050658;28;20199;-67
2021/12/21 03:38:28;;;;;;;21.77;10.27;;;-2.60;99.90;;;;;;5044696;28;20214;-72
2021/12/21 03:41:02;;;;;;;24.63;11.93;;;-2.70;99.90;;;;;;5033069;28;20207;-71
2021/12/21 03:43:32;;;;;;;25.60;12.80;;;-2.60;99.90;;;;;;5054154;28;20247;-72
2021/12/21 03:46:07;;;;;;;26.83;14.33;;;-2.70;99.90;;;;;;5051521;28;20207;-71
2021/12/21 03:48:34;;;;;;;28.87;13.60;;;-2.70;99.90;;;;;;5050722;28;20679;-72
2021/12/21 03:51:01;;;;;;;34.47;17.80;;;-2.60;99.90;;;;;;5051206;28;20203;-72
2021/12/21 03:53:28;;;;;;;28.63;13.40;;;-2.70;99.90;;;;;;5049723;28;20581;-71
2021/12/21 03:56:06;;;;;;;23.70;11.27;;;-2.80;99.90;;;;;;5049923;28;20600;-72
2021/12/21 03:58:35;;;;;;;25.30;11.97;;;-2.70;99.90;;;;;;5053733;28;20655;-72
2021/12/21 04:01:02;;;;;;;23.43;11.20;;;-2.70;99.90;;;;;;5050846;28;20450;-71
2021/12/21 04:03:29;;;;;;;21.80;10.30;;;-2.70;99.90;;;;;;5059744;28;20207;-72
2021/12/21 04:05:56;;;;;;;24.23;11.60;;;-2.70;99.90;;;;;;5050868;28;20215;-72
2021/12/21 04:08:23;;;;;;;23.97;11.13;;;-2.70;99.90;;;;;;5049940;28;20199;-71
2021/12/21 04:10:50;;;;;;;23.40;11.03;;;-2.70;99.90;;;;;;5050714;28;20253;-71
2021/12/21 04:13:17;;;;;;;22.17;11.43;;;-2.70;99.90;;;;;;5050378;28;20207;-71
2021/12/21 04:15:49;;;;;;;25.43;12.87;;;-2.80;99.90;;;;;;5050218;28;20202;-71
2021/12/21 04:18:19;;;;;;;23.93;10.57;;;-2.80;99.90;;;;;;5050372;28;20248;-71
2021/12/21 04:20:46;;;;;;;23.83;11.17;;;-2.70;99.90;;;;;;5050998;28;20253;-71
2021/12/21 04:23:13;;;;;;;22.47;12.60;;;-2.70;99.90;;;;;;5053195;28;20226;-71
2021/12/21 04:25:40;;;;;;;24.57;11.53;;;-2.80;99.90;;;;;;5054263;28;20244;-72
2021/12/21 04:28:07;;;;;;;22.13;11.23;;;-2.80;99.90;;;;;;5048786;28;20260;-72
2021/12/21 04:30:34;;;;;;;23.83;10.73;;;-2.80;99.90;;;;;;5050759;28;20199;-71
2021/12/21 04:33:03;;;;;;;23.20;11.00;;;-2.90;99.90;;;;;;5050606;28;20256;-71
2021/12/21 04:35:30;;;;;;;24.17;11.00;;;-2.90;99.90;;;;;;5050220;28;20589;-73
2021/12/21 04:38:01;;;;;;;20.77;11.13;;;-2.90;99.90;;;;;;5049794;28;20249;-73
2021/12/21 04:40:39;;;;;;;28.47;11.63;;;-2.80;99.90;;;;;;5050515;28;20211;-73
2021/12/21 04:43:06;;;;;;;25.27;11.63;;;-2.60;99.90;;;;;;5048214;28;20215;-73
2021/12/21 04:45:34;;;;;;;24.57;11.30;;;-2.70;99.90;;;;;;5048572;28;20195;-73
2021/12/21 04:48:01;;;;;;;24.83;13.67;;;-2.80;99.90;;;;;;5057620;28;20629;-73
2021/12/21 04:50:29;;;;;;;23.67;12.17;;;-2.80;99.90;;;;;;5058731;28;20276;-74
2021/12/21 04:52:57;;;;;;;25.47;12.13;;;-2.80;99.90;;;;;;5051252;28;20554;-73
2021/12/21 04:55:24;;;;;;;23.40;11.30;;;-2.90;99.90;;;;;;5053114;28;20210;-74
2021/12/21 04:57:51;;;;;;;22.50;12.80;;;-2.90;99.90;;;;;;5053593;28;20261;-73
2021/12/21 05:00:18;;;;;;;25.73;12.80;;;-2.90;99.90;;;;;;5053509;28;20206;-73
2021/12/21 05:02:45;;;;;;;21.27;11.07;;;-2.90;99.90;;;;;;5053413;28;20247;-73
2021/12/21 05:05:12;;;;;;;22.20;11.33;;;-3.00;99.90;;;;;;5053192;28;20253;-74
2021/12/21 05:07:44;;;;;;;25.20;11.30;;;-3.10;99.90;;;;;;5056583;28;20234;-74
2021/12/21 05:10:12;;;;;;;24.13;11.37;;;-3.10;99.90;;;;;;5055692;28;20202;-73
2021/12/21 05:12:39;;;;;;;23.80;10.87;;;-3.10;99.90;;;;;;5051951;28;20286;-73
2021/12/21 05:15:08;;;;;;;24.53;10.77;;;-3.10;99.90;;;;;;5053383;28;20211;-74
2021/12/21 05:17:35;;;;;;;22.00;11.63;;;-3.20;99.90;;;;;;5053629;28;20253;-73
2021/12/21 05:20:02;;;;;;;23.73;11.70;;;-3.20;99.90;;;;;;5059296;28;20221;-73
2021/12/21 05:22:29;;;;;;;23.83;11.33;;;-3.30;99.90;;;;;;5051837;28;20214;-74
2021/12/21 05:24:58;;;;;;;28.10;13.63;;;-3.20;99.90;;;;;;5037998;28;20237;-73
2021/12/21 05:27:25;;;;;;;24.77;12.27;;;-3.10;99.90;;;;;;5052794;28;20211;-73
2021/12/21 05:29:52;;;;;;;26.97;13.73;;;-2.90;99.90;;;;;;5053489;28;20203;-73
2021/12/21 05:32:19;;;;;;;26.40;11.87;;;-2.90;99.90;;;;;;5052381;28;20719;-74
2021/12/21 05:34:46;;;;;;;30.63;14.07;;;-2.90;99.90;;;;;;5053142;28;20241;-74
2021/12/21 05:37:13;;;;;;;30.07;13.80;;;-2.90;99.90;;;;;;5052613;28;20204;-73
2021/12/21 05:39:51;;;;;;;27.80;13.63;;;-2.90;99.90;;;;;;5049112;28;20202;-73
2021/12/21 05:42:19;;;;;;;29.50;14.63;;;-2.90;99.90;;;;;;5048122;28;20226;-73
2021/12/21 05:44:47;;;;;;;25.17;12.10;;;-2.90;99.90;;;;;;5061168;28;20579;-74
2021/12/21 05:47:14;;;;;;;24.60;11.93;;;-2.80;99.90;;;;;;5073186;28;20572;-74
2021/12/21 05:49:41;;;;;;;25.83;12.00;;;-2.90;99.90;;;;;;5059080;28;20284;-74
2021/12/21 05:52:08;;;;;;;30.43;13.80;;;-2.90;99.90;;;;;;5050944;28;20203;-74
2021/12/21 05:54:35;;;;;;;29.43;13.70;;;-2.80;99.90;;;;;;5056579;28;20211;-73
2021/12/21 05:57:04;;;;;;;27.27;14.43;;;-2.80;99.90;;;;;;5043511;28;20601;-74
2021/12/21 05:59:32;;;;;;;29.33;13.20;;;-2.80;99.90;;;;;;5053090;28;20264;-74
2021/12/21 06:01:59;;;;;;;28.00;12.77;;;-2.80;99.90;;;;;;5052605;28;20264;-73
2021/12/21 06:04:26;;;;;;;28.23;13.17;;;-2.80;99.90;;;;;;5051817;28;20248;-73
2021/12/21 06:06:53;;;;;;;27.53;13.60;;;-2.80;99.90;;;;;;5044347;28;20257;-73
2021/12/21 06:09:20;;;;;;;28.00;13.47;;;-2.80;99.90;;;;;;5055858;28;20202;-73
2021/12/21 06:11:55;;;;;;;28.63;13.60;;;-2.80;99.90;;;;;;5052038;28;20198;-73
2021/12/21 06:14:51;;;;;;;29.27;13.00;;;-2.80;99.90;;;;;;5053998;28;20206;-73
2021/12/21 06:23:04;;;;;;;27.67;13.70;;;-2.80;99.90;;;;;;5050721;28;20712;-73
2021/12/21 06:25:39;;;;;;;25.80;12.93;;;-2.90;99.90;;;;;;5052354;28;20199;-73
2021/12/21 06:28:09;;;;;;;29.70;13.13;;;-3.00;99.90;;;;;;5051389;28;20210;-74
2021/12/21 06:30:38;;;;;;;27.03;12.87;;;-3.00;99.90;;;;;;5052186;28;20248;-74
2021/12/21 06:33:07;;;;;;;26.30;14.00;;;-3.00;99.90;;;;;;5054207;28;20298;-73
2021/12/21 06:35:35;;;;;;;23.83;12.90;;;-3.00;99.90;;;;;;5053447;28;20215;-73
2021/12/21 06:38:02;;;;;;;24.73;12.50;;;-3.10;99.90;;;;;;5051045;28;20195;-73
2021/12/21 06:40:30;;;;;;;25.00;12.53;;;-3.10;99.90;;;;;;5052216;28;20650;-73
2021/12/21 06:43:00;;;;;;;25.50;11.73;;;-3.00;99.90;;;;;;5053678;28;20221;-73
2021/12/21 06:45:32;;;;;;;25.37;12.57;;;-3.00;99.90;;;;;;5057573;28;20239;-73
2021/12/21 06:53:32;;;;;;;25.93;13.00;;;-3.00;99.90;;;;;;5047388;28;20581;-73
2021/12/21 06:56:02;;;;;;;24.70;12.07;;;-3.00;99.90;;;;;;5051415;28;20200;-73
2021/12/21 06:58:29;;;;;;;28.33;14.37;;;-3.00;99.90;;;;;;5046210;28;20645;-73
2021/12/21 07:00:57;;;;;;;28.20;13.37;;;-3.00;99.90;;;;;;5049669;28;20302;-67
2021/12/21 07:03:24;;;;;;;28.63;12.57;;;-3.00;99.90;;;;;;5048542;28;20237;-66
2021/12/21 07:05:53;;;;;;;24.73;12.23;;;-2.80;99.90;;;;;;5049302;28;20226;-66
2021/12/21 07:08:25;;;;;;;26.07;12.47;;;-2.80;99.90;;;;;;5048485;28;20659;-66
2021/12/21 07:11:00;;;;;;;24.80;12.07;;;-2.90;99.90;;;;;;5051518;28;20211;-66
2021/12/21 07:18:57;;;;;;;24.17;12.23;;;-2.90;99.90;;;;;;5052550;28;20202;-66
2021/12/21 07:21:25;;;;;;;23.83;12.00;;;-2.90;99.90;;;;;;5051795;28;20203;-66
2021/12/21 07:23:52;;;;;;;23.33;11.33;;;-2.90;99.90;;;;;;5057448;28;20269;-67
2021/12/21 07:26:19;;;;;;;23.83;11.33;;;-2.90;99.90;;;;;;5050466;28;20198;-66
2021/12/21 07:28:46;;;;;;;26.00;12.63;;;-3.00;99.90;;;;;;5052534;28;20583;-66
2021/12/21 07:31:13;;;;;;;25.43;11.77;;;-2.90;99.90;;;;;;5051894;28;20656;-66
2021/12/21 07:33:40;;;;;;;29.63;12.67;;;-2.90;99.90;;;;;;5052177;28;20202;-66
2021/12/21 07:36:06;;;;;;;24.87;12.50;;;-2.90;99.90;;;;;;5052622;28;20195;-66
2021/12/21 07:38:35;;;;;;;24.30;12.73;;;-2.90;99.90;;;;;;5051573;28;20211;-66
2021/12/21 07:41:02;;;;;;;27.93;12.20;;;-3.00;99.90;;;;;;5052318;28;20226;-66
2021/12/21 07:43:28;;;;;;;27.73;12.83;;;-2.90;99.90;;;;;;5050961;28;20321;-66
2021/12/21 07:45:56;;;;;;;26.73;12.20;;;-2.90;99.90;;;;;;5052483;28;20638;-66
2021/12/21 07:48:23;;;;;;;26.00;12.30;;;-2.80;99.90;;;;;;5052304;28;20207;-66
2021/12/21 07:50:51;;;;;;;28.17;13.10;;;-2.80;99.90;;;;;;5051968;28;20583;-66
2021/12/21 07:53:20;;;;;;;26.37;13.27;;;-2.70;99.90;;;;;;5056382;28;20206;-66
2021/12/21 07:55:48;;;;;;;26.77;12.90;;;-2.80;99.90;;;;;;5072032;28;20197;-66
2021/12/21 07:58:15;;;;;;;28.67;12.93;;;-2.80;99.90;;;;;;5071644;28;20190;-66
2021/12/21 08:00:43;;;;;;;24.37;11.37;;;-2.70;99.90;;;;;;5072160;28;20198;-66
2021/12/21 08:03:14;;;;;;;26.23;12.03;;;-2.60;99.90;;;;;;5071529;28;20656;-66
2021/12/21 08:05:44;;;;;;;29.53;14.97;;;-2.60;99.90;;;;;;5071388;28;20232;-66
2021/12/21 08:08:16;;;;;;;28.13;12.73;;;-2.60;99.90;;;;;;5070889;28;20202;-66
2021/12/21 08:10:46;;;;;;;23.57;12.30;;;-2.60;99.90;;;;;;5072180;28;20648;-67
2021/12/21 08:13:15;;;;;;;23.87;12.67;;;-2.60;99.90;;;;;;5070900;28;20209;-66
2021/12/21 08:15:42;;;;;;;25.70;12.17;;;-2.60;99.90;;;;;;5071764;28;20204;-66
2021/12/21 08:18:09;;;;;;;25.07;12.50;;;-2.50;99.90;;;;;;5068683;28;20225;-67
2021/12/21 08:20:36;;;;;;;22.20;11.73;;;-2.50;99.90;;;;;;5050789;28;20203;-67
2021/12/21 08:23:05;;;;;;;30.87;12.70;;;-2.40;99.90;;;;;;5055248;28;20313;-66
2021/12/21 08:25:32;;;;;;;23.40;12.67;;;-2.50;99.90;;;;;;5071677;28;20203;-66
2021/12/21 08:28:03;;;;;;;25.43;12.33;;;-2.50;99.90;;;;;;5072497;28;20210;-67
2021/12/21 08:30:32;;;;;;;22.17;11.73;;;-2.50;99.90;;;;;;5075594;28;20202;-66
2021/12/21 08:32:59;;;;;;;24.33;11.40;;;-2.50;99.90;;;;;;5070418;28;20193;-66
2021/12/21 08:35:27;;;;;;;23.67;11.87;;;-2.50;99.90;;;;;;5055773;28;20207;-73
2021/12/21 08:38:02;;;;;;;23.30;11.30;;;-2.40;99.90;;;;;;5056965;28;20556;-66
2021/12/21 08:40:36;;;;;;;26.90;12.43;;;-2.20;99.90;;;;;;5059367;28;20647;-72
2021/12/21 08:43:03;;;;;;;25.07;12.77;;;-2.30;99.90;;;;;;5057611;28;20584;-66
2021/12/21 08:45:34;;;;;;;23.93;11.83;;;-2.30;99.90;;;;;;5055287;28;20281;-66
2021/12/21 08:48:01;;;;;;;26.17;12.27;;;-2.30;99.90;;;;;;5056061;28;20623;-66
2021/12/21 08:50:29;;;;;;;26.20;13.00;;;-2.20;99.90;;;;;;5055300;28;20205;-66
2021/12/21 08:52:55;;;;;;;28.70;13.57;;;-2.10;99.90;;;;;;5057087;28;20199;-66
2021/12/21 08:55:22;;;;;;;26.67;13.40;;;-2.00;99.90;;;;;;5056417;28;20230;-67
2021/12/21 08:57:49;;;;;;;25.37;12.60;;;-2.10;99.90;;;;;;5052777;28;20199;-67
2021/12/21 09:00:17;;;;;;;28.97;12.50;;;-2.00;99.90;;;;;;5050475;28;20218;-66
2021/12/21 09:02:45;;;;;;;25.77;12.33;;;-2.00;99.90;;;;;;5054663;28;20231;-66
2021/12/21 09:05:15;;;;;;;27.83;13.47;;;-2.00;99.90;;;;;;5054110;28;20675;-67
2021/12/21 09:07:42;;;;;;;28.40;13.90;;;-1.90;99.90;;;;;;5055462;28;20667;-66
2021/12/21 09:10:11;;;;;;;23.47;12.60;;;-2.00;99.90;;;;;;5066478;28;20199;-66
2021/12/21 09:12:38;;;;;;;26.07;12.50;;;-2.00;99.90;;;;;;5054346;28;20202;-66
2021/12/21 09:15:08;;;;;;;28.20;12.50;;;-1.90;99.90;;;;;;5053109;28;20214;-66
2021/12/21 09:17:35;;;;;;;25.73;12.97;;;-1.80;99.90;;;;;;5055872;28;20201;-66
2021/12/21 09:20:04;;;;;;;25.33;12.80;;;-1.50;99.90;;;;;;5050360;28;20221;-66
2021/12/21 09:22:31;;;;;;;29.83;12.30;;;-1.50;99.90;;;;;;5058132;28;20206;-66
2021/12/21 09:24:59;;;;;;;26.83;12.83;;;-1.80;99.90;;;;;;5056435;28;20226;-66
2021/12/21 09:27:28;;;;;;;24.70;11.73;;;-1.90;99.90;;;;;;5055449;28;20687;-66
2021/12/21 09:30:00;;;;;;;28.30;13.40;;;-2.00;99.90;;;;;;5050020;28;20200;-67
2021/12/21 09:32:28;;;;;;;25.93;13.03;;;-2.00;99.90;;;;;;5064239;28;20210;-66
2021/12/21 09:34:54;;;;;;;26.53;12.57;;;-1.90;99.90;;;;;;5051288;28;20195;-66
2021/12/21 09:37:23;;;;;;;27.63;13.23;;;-1.60;99.90;;;;;;5060823;28;20671;-66
2021/12/21 09:39:52;;;;;;;27.17;13.17;;;-1.50;99.90;;;;;;5058208;28;20199;-66
2021/12/21 09:42:23;;;;;;;26.60;12.73;;;-1.50;99.90;;;;;;5056166;28;20203;-66
2021/12/21 09:44:51;;;;;;;27.30;13.60;;;-1.30;99.90;;;;;;5053322;28;20218;-66
2021/12/21 09:47:18;;;;;;;25.03;13.57;;;-1.40;99.90;;;;;;5060204;28;20203;-66
2021/12/21 09:49:46;;;;;;;27.70;13.53;;;-1.50;99.90;;;;;;5054011;28;20225;-66
2021/12/21 09:52:18;;;;;;;28.10;13.80;;;-1.40;99.90;;;;;;5049586;28;20205;-66
2021/12/21 09:54:47;;;;;;;26.43;12.97;;;-1.20;99.90;;;;;;5055936;28;20612;-66
2021/12/21 09:57:16;;;;;;;29.77;13.73;;;-1.20;99.90;;;;;;5050839;28;20209;-66
2021/12/21 09:59:44;;;;;;;27.53;13.53;;;-1.10;99.90;;;;;;5058049;28;20277;-66
2021/12/21 10:02:11;;;;;;;25.20;12.97;;;-1.10;99.90;;;;;;5051169;28;20199;-66
2021/12/21 10:04:47;;;;;;;25.70;13.17;;;-1.00;99.90;;;;;;5053737;28;20230;-71
2021/12/21 10:07:14;;;;;;;29.03;13.97;;;-0.90;99.90;;;;;;5047150;28;20198;-72
2021/12/21 10:09:47;;;;;;;30.33;13.60;;;-0.80;99.90;;;;;;5058865;28;20210;-71
2021/12/21 10:12:27;;;;;;;27.73;14.70;;;-0.70;99.90;;;;;;5052822;28;20739;-70
2021/12/21 10:15:07;;;;;;;27.03;13.63;;;-0.60;99.90;;;;;;5059143;28;20635;-71
2021/12/21 10:17:35;;;;;;;30.27;13.80;;;-0.70;99.90;;;;;;5053250;28;20588;-71
2021/12/21 10:20:04;;;;;;;29.77;13.43;;;-0.50;99.90;;;;;;5056706;28;20204;-71
2021/12/21 10:22:33;;;;;;;28.60;14.23;;;-0.30;99.90;;;;;;5051354;28;20203;-71
2021/12/21 10:25:00;;;;;;;29.83;14.47;;;0.40;99.90;;;;;;5050964;28;20222;-71
2021/12/21 10:27:29;;;;;;;30.97;15.57;;;0.20;99.90;;;;;;5053202;28;20566;-71
2021/12/21 10:29:59;;;;;;;24.10;12.90;;;-0.10;99.90;;;;;;5044015;28;20203;-71
2021/12/21 10:32:28;;;;;;;31.57;14.43;;;-0.40;99.90;;;;;;5049547;28;20244;-71
2021/12/21 10:34:59;;;;;;;28.03;14.07;;;-0.30;99.90;;;;;;5053548;28;20198;-70
2021/12/21 10:37:30;;;;;;;27.73;13.90;;;-0.30;99.90;;;;;;5049368;28;20256;-71
2021/12/21 10:40:11;;;;;;;28.67;14.17;;;-0.40;99.90;;;;;;5049908;28;20207;-70
2021/12/21 10:42:56;;;;;;;40.33;15.30;;;-0.20;99.90;;;;;;5058143;28;20227;-70
2021/12/21 10:45:30;;;;;;;26.27;15.10;;;0.10;99.90;;;;;;5047286;28;20222;-70
2021/12/21 10:47:58;;;;;;;31.47;14.20;;;0.20;99.90;;;;;;5055381;28;20207;-71
2021/12/21 10:50:26;;;;;;;27.33;15.17;;;0.20;99.90;;;;;;5058393;28;20202;-71
2021/12/21 10:53:06;;;;;;;24.03;13.20;;;0.00;99.90;;;;;;5053850;28;20231;-70
2021/12/21 10:55:36;;;;;;;28.13;13.20;;;0.10;99.90;;;;;;5054713;28;20210;-70
2021/12/21 10:58:08;;;;;;;29.97;14.10;;;-0.10;99.90;;;;;;5052899;28;20251;-71
2021/12/21 11:00:37;;;;;;;23.40;13.87;;;-0.10;99.90;;;;;;5050152;28;20210;-71
2021/12/21 11:03:05;;;;;;;27.03;14.40;;;-0.10;99.90;;;;;;5057558;28;20198;-70
2021/12/21 11:05:32;;;;;;;26.37;14.73;;;-0.10;99.90;;;;;;5056305;28;20218;-70
2021/12/21 11:08:05;;;;;;;26.77;14.10;;;0.00;99.90;;;;;;5055043;28;20203;-70
2021/12/21 11:10:34;;;;;;;30.47;15.53;;;-0.10;99.90;;;;;;5059603;28;20203;-71
2021/12/21 11:13:04;;;;;;;31.63;15.47;;;-0.20;99.90;;;;;;5051847;28;20226;-71
2021/12/21 11:15:35;;;;;;;28.73;14.57;;;-0.20;99.90;;;;;;5049644;28;20282;-70
2021/12/21 11:18:05;;;;;;;26.10;14.33;;;-0.20;99.90;;;;;;5056355;28;20664;-70
2021/12/21 11:20:33;;;;;;;26.87;15.30;;;-0.10;99.90;;;;;;5047075;28;20204;-70
2021/12/21 11:23:00;;;;;;;26.77;14.60;;;0.00;99.90;;;;;;5051336;28;20195;-71
2021/12/21 11:25:27;;;;;;;29.40;15.33;;;0.10;99.90;;;;;;5054792;28;20749;-71
2021/12/21 11:27:54;;;;;;;25.90;15.10;;;0.10;99.90;;;;;;5057166;28;20242;-70
2021/12/21 11:30:24;;;;;;;27.03;14.77;;;0.30;99.90;;;;;;5058886;28;20203;-71
2021/12/21 11:32:56;;;;;;;26.90;14.97;;;0.30;99.90;;;;;;5058262;28;20553;-71
2021/12/21 11:38:13;;;;;;;29.37;15.00;;;0.30;99.90;;;;;;5055070;28;20228;-70
2021/12/21 11:40:45;;;;;;;29.47;14.87;;;0.30;99.90;;;;;;5053915;28;20598;-70
2021/12/21 11:43:25;;;;;;;26.13;14.07;;;0.40;99.90;;;;;;5053033;28;20200;-71
2021/12/21 11:45:59;;;;;;;26.87;14.50;;;0.40;99.90;;;;;;5051390;28;20231;-71
2021/12/21 11:48:42;;;;;;;28.80;16.07;;;0.50;99.90;;;;;;5054633;28;20203;-71
2021/12/21 11:51:13;;;;;;;27.00;14.90;;;0.60;99.90;;;;;;5052289;28;20282;-71
2021/12/21 11:53:42;;;;;;;28.53;14.57;;;0.50;99.90;;;;;;5055140;28;20238;-71
2021/12/21 11:56:17;;;;;;;28.73;15.43;;;0.50;99.90;;;;;;5050031;28;20569;-71
2021/12/21 11:58:44;;;;;;;32.50;16.67;;;0.70;99.90;;;;;;5059032;28;20193;-70
2021/12/21 12:01:16;;;;;;;32.00;16.47;;;1.70;99.90;;;;;;5057114;28;20202;-70
2021/12/21 12:03:58;;;;;;;34.77;15.77;;;1.70;99.90;;;;;;5065488;28;20323;-71
2021/12/21 12:06:27;;;;;;;27.83;15.63;;;1.30;99.90;;;;;;5064811;28;20213;-70
2021/12/21 12:09:00;;;;;;;28.60;17.27;;;1.20;99.90;;;;;;5055957;28;20203;-70
2021/12/21 12:11:35;;;;;;;30.27;16.80;;;0.90;99.90;;;;;;5054656;28;20260;-70
2021/12/21 12:14:07;;;;;;;29.47;15.70;;;1.00;99.90;;;;;;5058548;28;20678;-70
2021/12/21 12:16:42;;;;;;;30.77;16.50;;;1.10;99.90;;;;;;5059484;28;20235;-71
2021/12/21 12:19:16;;;;;;;31.73;16.87;;;1.00;99.90;;;;;;5063076;28;20673;-70
2021/12/21 12:21:56;;;;;;;35.63;19.43;;;0.70;99.90;;;;;;5052948;28;20194;-71
2021/12/21 12:24:25;;;;;;;36.47;19.03;;;0.50;99.90;;;;;;5058048;28;20573;-70
2021/12/21 12:27:02;;;;;;;39.50;21.20;;;0.30;99.90;;;;;;5055790;28;20242;-71
2021/12/21 12:29:30;;;;;;;41.93;21.10;;;0.30;99.90;;;;;;5060712;28;20252;-71
2021/12/21 12:32:03;;;;;;;40.37;22.00;;;0.10;99.90;;;;;;5054267;28;20195;-71
2021/12/21 12:34:34;;;;;;;36.67;20.67;;;0.00;99.90;;;;;;5055835;28;20207;-70
2021/12/21 12:37:13;;;;;;;44.47;23.30;;;0.00;99.90;;;;;;5056283;28;20653;-71
2021/12/21 12:39:45;;;;;;;41.80;21.03;;;0.00;99.90;;;;;;5061676;28;20708;-70
2021/12/21 12:42:15;;;;;;;46.23;22.13;;;-0.20;99.90;;;;;;5051867;28;20253;-70
2021/12/21 12:44:46;;;;;;;44.03;21.23;;;-0.20;99.90;;;;;;5057414;28;20227;-70
2021/12/21 12:47:15;;;;;;;45.17;20.87;;;-0.30;99.90;;;;;;5059136;28;20210;-70
2021/12/21 12:49:50;;;;;;;40.10;20.23;;;-0.50;99.90;;;;;;5059546;28;20210;-70
2021/12/21 12:52:19;;;;;;;43.00;22.47;;;-0.50;99.90;;;;;;5049566;28;20234;-71
2021/12/21 12:54:51;;;;;;;39.27;21.90;;;-0.50;99.90;;;;;;5065263;28;20254;-71
2021/12/21 12:57:31;;;;;;;43.37;23.27;;;-0.40;99.90;;;;;;5052641;28;20206;-71
2021/12/21 13:00:15;;;;;;;44.80;24.93;;;-0.20;99.90;;;;;;5053103;28;20200;-71
2021/12/21 13:02:53;;;;;;;39.70;21.60;;;-0.10;99.90;;;;;;5063631;28;20236;-71
2021/12/21 13:05:26;;;;;;;40.23;20.70;;;-0.20;99.90;;;;;;5061100;28;20275;-71
2021/12/21 13:07:53;;;;;;;42.83;22.60;;;-0.10;99.90;;;;;;5055588;28;20672;-71
2021/12/21 13:10:23;;;;;;;42.70;22.73;;;-0.10;99.90;;;;;;5054037;28;20248;-71
2021/12/21 13:12:57;;;;;;;45.73;23.47;;;-0.20;99.90;;;;;;5054826;28;20957;-71
2021/12/21 13:15:33;;;;;;;48.00;23.43;;;-0.20;99.90;;;;;;5058093;28;20652;-70
2021/12/21 13:18:02;;;;;;;47.10;24.17;;;-0.20;99.90;;;;;;5059456;28;20252;-70